createdAt,value
2022-12-03T00:02:00.292Z,37.65
2022-12-03T00:04:32.884Z,33.80
2022-12-03T00:07:01.645Z,40.85
2022-12-03T00:09:30.596Z,36.65
2022-12-03T00:11:59.329Z,40.35
2022-12-03T00:14:28.119Z,33.97
2022-12-03T00:16:56.791Z,35.05
2022-12-03T00:19:28.050Z,39.13
2022-12-03T00:21:58.338Z,40.38
2022-12-03T00:24:26.998Z,40.53
2022-12-03T00:26:55.683Z,34.33
2022-12-03T00:29:24.329Z,42.55
2022-12-03T00:31:56.464Z,39.17
2022-12-03T00:34:25.100Z,43.65
2022-12-03T00:36:55.924Z,34.92
2022-12-03T00:39:25.957Z,41.30
2022-12-03T00:41:54.843Z,34.28
2022-12-03T00:44:23.626Z,39.08
2022-12-03T00:46:52.616Z,38.88
2022-12-03T00:49:21.880Z,38.95
2022-12-03T00:51:52.030Z,38.40
2022-12-03T00:54:20.829Z,45.28
2022-12-03T00:56:50.808Z,45.28
2022-12-03T00:59:20.033Z,40.75
2022-12-03T01:01:48.844Z,35.20
2022-12-03T01:04:17.650Z,41.20
2022-12-03T01:06:47.043Z,40.65
2022-12-03T01:09:15.684Z,37.85
2022-12-03T01:11:47.631Z,39.78
2022-12-03T01:14:19.800Z,33.97
2022-12-03T01:16:49.037Z,36.80
2022-12-03T01:19:20.097Z,37.55
2022-12-03T01:21:51.140Z,38.13
2022-12-03T01:24:20.896Z,36.85
2022-12-03T01:26:49.673Z,36.13
2022-12-03T01:29:19.746Z,39.30
2022-12-03T01:32:05.741Z,37.42
2022-12-03T01:34:34.425Z,35.70
2022-12-03T01:37:05.652Z,36.20
2022-12-03T01:39:34.444Z,36.88
2022-12-03T01:42:04.328Z,41.10
2022-12-03T01:44:39.448Z,41.67
2022-12-03T01:47:14.949Z,37.22
2022-12-03T01:52:15.458Z,39.60
2022-12-03T01:54:48.377Z,36.97
2022-12-03T01:57:22.683Z,42.70
2022-12-03T01:59:55.840Z,38.60
2022-12-03T02:02:27.469Z,39.55
2022-12-03T02:04:57.179Z,37.83
2022-12-03T02:07:30.131Z,41.17
2022-12-03T02:10:01.797Z,37.95
2022-12-03T02:12:35.610Z,38.40
2022-12-03T02:15:08.961Z,41.42
2022-12-03T02:17:37.864Z,41.25
2022-12-03T02:20:09.452Z,41.97
2022-12-03T02:22:44.591Z,44.10
2022-12-03T02:25:17.572Z,38.45
2022-12-03T02:30:22.268Z,40.38
2022-12-03T02:32:52.846Z,39.80
2022-12-03T02:35:23.759Z,39.53
2022-12-03T02:37:59.370Z,42.17
2022-12-03T02:40:33.755Z,39.83
2022-12-03T02:43:05.023Z,40.97
2022-12-03T02:45:37.804Z,42.42
2022-12-03T02:48:11.533Z,43.05
2022-12-03T02:50:43.050Z,37.65
2022-12-03T02:53:18.355Z,37.42
2022-12-03T02:55:49.568Z,33.53
2022-12-03T02:58:19.462Z,33.70
2022-12-03T03:00:49.485Z,37.72
2022-12-03T03:03:20.003Z,34.33
2022-12-03T03:05:50.380Z,39.63
2022-12-03T03:08:19.971Z,36.75
2022-12-03T03:10:51.031Z,32.97
2022-12-03T03:13:21.401Z,36.28
2022-12-03T03:15:50.417Z,37.90
2022-12-03T03:18:19.662Z,38.80
2022-12-03T03:20:49.100Z,37.05
2022-12-03T03:23:20.330Z,40.47
2022-12-03T03:25:55.283Z,38.63
2022-12-03T03:28:24.490Z,40.03
2022-12-03T03:30:53.553Z,32.63
2022-12-03T03:33:22.973Z,39.53
2022-12-03T03:35:52.168Z,37.25
2022-12-03T03:38:22.193Z,36.25
2022-12-03T03:40:54.027Z,40.88
2022-12-03T03:43:26.316Z,37.22
2022-12-03T03:45:55.945Z,35.40
2022-12-03T03:48:25.349Z,37.30
2022-12-03T03:50:57.688Z,36.08
2022-12-03T03:53:26.617Z,40.15
2022-12-03T03:55:57.701Z,40.65
2022-12-03T03:58:28.999Z,37.45
2022-12-03T04:00:57.730Z,35.55
2022-12-03T04:03:30.274Z,40.45
2022-12-03T04:05:59.540Z,43.00
2022-12-03T04:08:31.402Z,35.38
2022-12-03T04:11:22.197Z,37.90
2022-12-03T04:13:52.242Z,40.75
2022-12-03T04:16:21.063Z,36.15
2022-12-03T04:18:50.895Z,40.33
2022-12-03T04:21:41.116Z,38.47
2022-12-03T04:24:12.973Z,41.55
2022-12-03T04:27:01.205Z,39.45
2022-12-03T04:29:29.997Z,40.67
2022-12-03T04:32:16.631Z,42.95
2022-12-03T04:35:04.740Z,41.42
2022-12-03T04:37:33.968Z,41.42
2022-12-03T04:40:22.788Z,40.75
2022-12-03T04:42:55.426Z,37.85
2022-12-03T04:45:24.143Z,46.65
2022-12-03T04:47:52.829Z,42.08
2022-12-03T04:50:21.606Z,43.55
2022-12-03T04:52:53.653Z,44.28
2022-12-03T04:55:22.704Z,45.10
2022-12-03T04:57:55.977Z,43.78
2022-12-03T05:00:27.858Z,39.85
2022-12-03T05:02:56.737Z,48.33
2022-12-03T05:05:28.344Z,41.08
2022-12-03T05:08:00.653Z,41.80
2022-12-03T05:10:44.461Z,40.22
2022-12-03T05:13:15.190Z,46.08
2022-12-03T05:15:44.788Z,40.63
2022-12-03T05:18:13.864Z,43.25
2022-12-03T05:20:41.603Z,47.95
2022-12-03T05:23:11.091Z,41.45
2022-12-03T05:25:40.192Z,45.38
2022-12-03T05:28:11.402Z,47.17
2022-12-03T05:30:41.797Z,41.65
2022-12-03T05:33:10.881Z,52.47
2022-12-03T05:35:42.253Z,41.92
2022-12-03T05:38:11.631Z,45.33
2022-12-03T05:40:40.479Z,45.88
2022-12-03T05:43:08.567Z,43.78
2022-12-03T05:45:38.974Z,42.40
2022-12-03T05:48:13.691Z,42.05
2022-12-03T05:50:46.850Z,42.45
2022-12-03T05:53:17.143Z,43.67
2022-12-03T05:55:45.916Z,43.10
2022-12-03T05:58:14.612Z,37.17
2022-12-03T06:00:43.568Z,39.67
2022-12-03T06:03:13.901Z,40.50
2022-12-03T06:05:43.170Z,39.30
2022-12-03T06:08:11.791Z,39.10
2022-12-03T06:10:41.924Z,36.08
2022-12-03T06:13:11.023Z,42.65
2022-12-03T06:15:43.685Z,40.85
2022-12-03T06:18:15.965Z,38.40
2022-12-03T06:20:44.671Z,38.92
2022-12-03T06:23:13.353Z,40.63
2022-12-03T06:25:44.496Z,39.15
2022-12-03T06:28:16.817Z,36.40
2022-12-03T06:30:45.640Z,40.22
2022-12-03T06:33:15.896Z,39.90
2022-12-03T06:35:44.530Z,43.92
2022-12-03T06:38:13.377Z,40.72
2022-12-03T06:41:11.027Z,37.70
2022-12-03T06:43:40.362Z,36.67
2022-12-03T06:46:12.629Z,35.70
2022-12-03T06:48:43.163Z,37.47
2022-12-03T06:51:12.588Z,42.28
2022-12-03T06:53:43.964Z,42.95
2022-12-03T06:56:14.058Z,46.78
2022-12-03T06:58:43.838Z,40.90
2022-12-03T07:01:13.491Z,44.92
2022-12-03T07:03:44.386Z,49.28
2022-12-03T07:06:14.300Z,41.78
2022-12-03T07:08:46.080Z,48.22
2022-12-03T07:11:29.743Z,45.90
2022-12-03T07:14:04.709Z,41.08
2022-12-03T07:16:35.978Z,41.92
2022-12-03T07:19:08.293Z,46.85
2022-12-03T07:21:38.403Z,49.72
2022-12-03T07:24:09.850Z,48.50
2022-12-03T07:26:38.797Z,39.63
2022-12-03T07:29:09.935Z,47.15
2022-12-03T07:31:38.803Z,39.53
2022-12-03T07:34:09.163Z,43.85
2022-12-03T07:36:40.379Z,47.55
2022-12-03T07:39:13.898Z,41.28
2022-12-03T07:41:46.145Z,49.20
2022-12-03T07:44:15.078Z,50.13
2022-12-03T07:46:44.307Z,49.28
2022-12-03T07:49:17.512Z,48.25
2022-12-03T07:51:53.610Z,49.47
2022-12-03T07:54:22.858Z,47.03
2022-12-03T07:57:00.901Z,47.50
2022-12-03T07:59:30.744Z,45.00
2022-12-03T08:02:02.693Z,55.53
2022-12-03T08:04:36.215Z,43.47
2022-12-03T08:07:06.324Z,49.28
2022-12-03T08:09:35.640Z,48.38
2022-12-03T08:12:16.185Z,52.33
2022-12-03T08:14:45.310Z,49.45
2022-12-03T08:17:17.942Z,44.47
2022-12-03T08:19:50.545Z,54.90
2022-12-03T08:22:22.325Z,52.33
2022-12-03T08:24:51.225Z,45.15
2022-12-03T08:27:20.905Z,45.03
2022-12-03T08:30:01.155Z,48.40
2022-12-03T08:32:32.331Z,47.40
2022-12-03T08:35:03.417Z,48.85
2022-12-03T08:37:37.240Z,45.33
2022-12-03T08:40:21.310Z,46.83
2022-12-03T08:45:40.688Z,47.67
2022-12-03T08:48:26.622Z,44.15
2022-12-03T08:51:01.689Z,43.45
2022-12-03T08:53:33.261Z,106.85
2022-12-03T08:56:03.208Z,56.30
2022-12-03T08:58:38.036Z,47.78
2022-12-03T09:01:28.496Z,45.42
2022-12-03T09:04:16.409Z,41.72
2022-12-03T09:06:46.769Z,42.58
2022-12-03T09:09:15.404Z,41.42
2022-12-03T09:11:44.983Z,43.65
2022-12-03T09:14:18.452Z,46.67
2022-12-03T09:16:48.217Z,41.45
2022-12-03T09:19:19.752Z,40.25
2022-12-03T09:21:50.210Z,40.97
2022-12-03T09:24:19.197Z,42.25
2022-12-03T09:26:51.117Z,44.33
2022-12-03T09:29:22.259Z,41.65
2022-12-03T09:31:53.478Z,39.40
2022-12-03T09:34:23.690Z,42.65
2022-12-03T09:36:53.733Z,36.78
2022-12-03T09:39:22.410Z,42.28
2022-12-03T09:41:51.651Z,39.88
2022-12-03T09:44:20.836Z,41.72
2022-12-03T09:46:52.076Z,40.10
2022-12-03T09:49:22.169Z,39.08
2022-12-03T09:51:57.747Z,44.10
2022-12-03T09:54:28.821Z,41.83
2022-12-03T09:57:00.384Z,39.80
2022-12-03T09:59:33.421Z,39.58
2022-12-03T10:02:03.186Z,43.80
2022-12-03T10:04:34.313Z,41.75
2022-12-03T10:07:04.421Z,45.65
2022-12-03T10:09:33.664Z,46.08
2022-12-03T10:12:02.560Z,44.90
2022-12-03T10:14:31.536Z,46.40
2022-12-03T10:17:00.805Z,44.65
2022-12-03T10:19:35.497Z,56.22
2022-12-03T10:22:05.593Z,58.63
2022-12-03T10:24:38.221Z,48.55
2022-12-03T10:27:22.459Z,53.17
2022-12-03T10:29:58.665Z,51.15
2022-12-03T10:32:40.376Z,46.10
2022-12-03T10:35:12.501Z,57.53
2022-12-03T10:37:59.178Z,46.45
2022-12-03T10:40:31.908Z,52.20
2022-12-03T10:43:21.491Z,50.35
2022-12-03T10:46:20.040Z,53.33
2022-12-03T10:49:11.262Z,55.80
2022-12-03T10:51:40.919Z,53.90
2022-12-03T10:54:18.048Z,51.28
2022-12-03T10:56:48.833Z,58.42
2022-12-03T10:59:21.992Z,57.10
2022-12-03T11:01:52.109Z,51.95
2022-12-03T11:04:30.391Z,55.42
2022-12-03T11:07:00.499Z,57.03
2022-12-03T11:09:33.276Z,54.28
2022-12-03T11:12:06.457Z,53.83
2022-12-03T11:15:06.729Z,60.83
2022-12-03T11:17:47.211Z,51.83
2022-12-03T11:21:08.316Z,66.72
2022-12-03T11:24:05.445Z,63.72
2022-12-03T11:27:17.331Z,62.63
2022-12-03T11:30:14.791Z,56.78
2022-12-03T11:33:06.472Z,53.83
2022-12-03T11:36:07.962Z,51.90
2022-12-03T11:38:53.316Z,53.67
2022-12-03T11:41:27.243Z,54.20
2022-12-03T11:44:31.731Z,56.78
2022-12-03T11:47:19.862Z,61.08
2022-12-03T11:49:53.490Z,54.28
2022-12-03T11:52:34.322Z,57.80
2022-12-03T11:55:14.866Z,57.03
2022-12-03T11:57:44.453Z,88.60
2022-12-03T12:00:24.397Z,61.88
2022-12-03T12:02:58.332Z,62.90
2022-12-03T12:05:32.499Z,59.07
2022-12-03T12:08:04.585Z,54.45
2022-12-03T12:10:45.926Z,50.88
2022-12-03T12:13:54.602Z,58.10
2022-12-03T12:16:42.447Z,55.35
2022-12-03T12:19:39.999Z,55.38
2022-12-03T12:22:17.545Z,50.63
2022-12-03T12:24:51.581Z,45.53
2022-12-03T12:27:22.784Z,51.47
2022-12-03T12:30:22.058Z,52.83
2022-12-03T12:33:09.246Z,57.28
2022-12-03T12:35:42.463Z,52.88
2022-12-03T12:38:17.938Z,56.35
2022-12-03T12:40:50.699Z,52.33
2022-12-03T12:43:26.600Z,52.28
2022-12-03T12:46:13.824Z,45.53
2022-12-03T12:48:59.351Z,48.15
2022-12-03T12:51:30.881Z,51.22
2022-12-03T12:54:00.464Z,52.90
2022-12-03T12:56:32.711Z,57.90
2022-12-03T12:59:12.400Z,51.88
2022-12-03T13:01:43.608Z,54.40
2022-12-03T13:04:14.609Z,54.45
2022-12-03T13:06:46.175Z,48.47
2022-12-03T13:09:19.155Z,51.63
2022-12-03T13:14:23.940Z,56.85
2022-12-03T13:16:55.627Z,51.88
2022-12-03T13:19:28.987Z,49.25
2022-12-03T13:22:11.403Z,60.55
2022-12-03T13:24:45.604Z,49.17
2022-12-03T13:27:26.626Z,48.03
2022-12-03T13:30:00.149Z,50.70
2022-12-03T13:32:34.612Z,53.47
2022-12-03T13:35:08.206Z,51.45
2022-12-03T13:37:39.325Z,56.05
2022-12-03T13:40:21.834Z,45.65
2022-12-03T13:42:54.309Z,54.00
2022-12-03T13:45:32.659Z,57.00
2022-12-03T13:48:14.722Z,58.00
2022-12-03T13:50:46.219Z,59.50
2022-12-03T13:53:22.674Z,62.10
2022-12-03T13:55:55.002Z,63.47
2022-12-03T13:58:23.903Z,66.05
2022-12-03T14:00:53.513Z,60.30
2022-12-03T14:03:23.457Z,70.07
2022-12-03T14:05:55.112Z,64.78
2022-12-03T14:08:25.632Z,74.00
2022-12-03T14:11:00.340Z,70.27
2022-12-03T14:13:29.634Z,72.90
2022-12-03T14:16:00.833Z,77.30
2022-12-03T14:18:30.071Z,66.05
2022-12-03T14:20:58.988Z,67.97
2022-12-03T14:23:29.603Z,69.13
2022-12-03T14:25:58.282Z,76.32
2022-12-03T14:28:26.909Z,71.20
2022-12-03T14:30:55.922Z,70.60
2022-12-03T14:33:24.613Z,72.82
2022-12-03T14:35:56.322Z,69.20
2022-12-03T14:38:29.180Z,72.43
2022-12-03T14:40:58.432Z,75.57
2022-12-03T14:43:30.200Z,68.82
2022-12-03T14:45:58.907Z,64.13
2022-12-03T14:48:28.208Z,71.78
2022-12-03T14:50:57.135Z,73.03
2022-12-03T14:53:27.612Z,69.47
2022-12-03T14:56:02.490Z,102.30
2022-12-03T14:58:31.277Z,89.82
2022-12-03T15:01:02.536Z,68.25
2022-12-03T15:03:31.596Z,65.22
2022-12-03T15:06:01.566Z,60.33
2022-12-03T15:08:30.723Z,60.88
2022-12-03T15:10:59.498Z,67.60
2022-12-03T15:13:30.096Z,66.47
2022-12-03T15:15:58.803Z,61.75
2022-12-03T15:18:27.516Z,61.00
2022-12-03T15:20:57.426Z,53.10
2022-12-03T15:23:29.334Z,54.78
2022-12-03T15:25:58.456Z,60.75
2022-12-03T15:28:31.384Z,49.35
2022-12-03T15:31:00.213Z,61.28
2022-12-03T15:33:29.028Z,50.58
2022-12-03T15:35:59.821Z,56.67
2022-12-03T15:38:31.099Z,50.60
2022-12-03T15:41:20.702Z,48.80
2022-12-03T15:43:52.128Z,47.35
2022-12-03T15:46:21.695Z,47.38
2022-12-03T15:48:50.789Z,45.03
2022-12-03T15:51:19.798Z,45.15
2022-12-03T15:53:48.522Z,47.95
2022-12-03T15:56:19.928Z,48.58
2022-12-03T15:58:50.284Z,44.75
2022-12-03T16:01:22.035Z,53.20
2022-12-03T16:03:51.902Z,41.75
2022-12-03T16:06:24.207Z,50.03
2022-12-03T16:08:52.946Z,46.40
2022-12-03T16:11:21.887Z,47.53
2022-12-03T16:13:52.069Z,44.20
2022-12-03T16:16:20.757Z,44.25
2022-12-03T16:18:50.012Z,42.67
2022-12-03T16:21:23.396Z,45.45
2022-12-03T16:23:55.281Z,51.28
2022-12-03T16:26:24.025Z,48.63
2022-12-03T16:28:54.029Z,50.65
2022-12-03T16:31:25.194Z,46.92
2022-12-03T16:33:54.802Z,46.78
2022-12-03T16:36:23.509Z,52.28
2022-12-03T16:38:52.533Z,60.40
2022-12-03T16:41:22.431Z,57.20
2022-12-03T16:44:01.479Z,47.35
2022-12-03T16:46:33.639Z,52.72
2022-12-03T16:49:03.798Z,49.28
2022-12-03T16:51:35.521Z,52.13
2022-12-03T16:54:06.613Z,54.17
2022-12-03T16:56:35.677Z,47.10
2022-12-03T16:59:08.430Z,56.20
2022-12-03T17:01:39.654Z,62.70
2022-12-03T17:04:08.391Z,78.00
2022-12-03T17:06:37.096Z,58.00
2022-12-03T17:09:06.131Z,52.97
2022-12-03T17:11:36.934Z,57.80
2022-12-03T17:14:06.950Z,52.22
2022-12-03T17:16:35.653Z,54.13
2022-12-03T17:19:06.521Z,58.33
2022-12-03T17:21:39.120Z,53.70
2022-12-03T17:24:10.936Z,53.15
2022-12-03T17:26:41.881Z,53.05
2022-12-03T17:29:12.475Z,54.38
2022-12-03T17:31:44.246Z,52.30
2022-12-03T17:34:12.981Z,56.30
2022-12-03T17:36:41.623Z,62.17
2022-12-03T17:39:11.538Z,56.30
2022-12-03T17:41:40.226Z,111.70
2022-12-03T17:44:11.340Z,60.55
2022-12-03T17:46:43.150Z,56.83
2022-12-03T17:49:11.964Z,51.10
2022-12-03T17:51:43.393Z,51.00
2022-12-03T17:54:15.196Z,92.32
2022-12-03T17:56:44.101Z,90.00
2022-12-03T17:59:20.453Z,65.93
2022-12-03T18:01:50.644Z,71.50
2022-12-03T18:04:48.245Z,64.85
2022-12-03T18:07:18.454Z,54.25
2022-12-03T18:09:50.284Z,59.75
2022-12-03T18:12:19.936Z,54.00
2022-12-03T18:14:49.366Z,61.38
2022-12-03T18:17:19.986Z,62.65
2022-12-03T18:19:49.362Z,59.17
2022-12-03T18:22:19.369Z,63.50
2022-12-03T18:24:51.981Z,63.22
2022-12-03T18:27:21.990Z,59.90
2022-12-03T18:29:54.237Z,60.50
2022-12-03T18:32:29.622Z,59.30
2022-12-03T18:35:00.276Z,62.65
2022-12-03T18:37:31.211Z,63.00
2022-12-03T18:40:02.043Z,65.03
2022-12-03T18:42:32.551Z,66.05
2022-12-03T18:45:02.709Z,70.50
2022-12-03T18:47:33.414Z,67.50
2022-12-03T18:50:03.017Z,71.68
2022-12-03T18:52:31.757Z,66.50
2022-12-03T18:55:00.416Z,63.63
2022-12-03T18:57:29.093Z,83.15
2022-12-03T18:59:58.059Z,74.72
2022-12-03T19:05:19.921Z,67.63
2022-12-03T19:07:53.872Z,65.35
2022-12-03T19:10:25.403Z,62.30
2022-12-03T19:12:56.592Z,64.00
2022-12-03T19:15:25.424Z,64.10
2022-12-03T19:17:54.096Z,68.00
2022-12-03T19:20:24.393Z,70.38
2022-12-03T19:22:53.012Z,71.57
2022-12-03T19:25:24.324Z,59.35
2022-12-03T19:27:55.142Z,56.78
2022-12-03T19:30:23.977Z,66.72
2022-12-03T19:32:52.858Z,68.63
2022-12-03T19:35:22.419Z,73.50
2022-12-03T19:37:52.518Z,70.18
2022-12-03T19:40:21.451Z,67.38
2022-12-03T19:42:50.318Z,73.72
2022-12-03T19:45:21.393Z,62.53
2022-12-03T19:47:50.046Z,74.82
2022-12-03T19:50:23.080Z,62.78
2022-12-03T19:52:53.752Z,65.35
2022-12-03T19:55:22.403Z,65.55
2022-12-03T19:57:51.126Z,74.30
2022-12-03T20:00:20.059Z,68.35
2022-12-03T20:02:50.881Z,71.40
2022-12-03T20:05:21.499Z,63.03
2022-12-03T20:07:50.506Z,61.58
2022-12-03T20:10:21.346Z,69.90
2022-12-03T20:12:49.984Z,59.83
2022-12-03T20:15:21.161Z,56.67
2022-12-03T20:17:50.269Z,61.83
2022-12-03T20:20:19.106Z,56.30
2022-12-03T20:22:47.881Z,67.85
2022-12-03T20:25:16.580Z,61.08
2022-12-03T20:27:46.892Z,55.90
2022-12-03T20:30:15.736Z,58.03
2022-12-03T20:32:47.163Z,60.15
2022-12-03T20:35:17.089Z,61.88
2022-12-03T20:38:06.740Z,58.63
2022-12-03T20:40:55.423Z,58.08
2022-12-03T20:43:26.468Z,63.17
2022-12-03T20:46:01.065Z,61.40
2022-12-03T20:48:33.924Z,61.45
2022-12-03T20:51:04.715Z,61.08
2022-12-03T20:53:34.257Z,60.53
2022-12-03T20:56:07.579Z,57.35
2022-12-03T20:58:57.912Z,62.42
2022-12-03T21:01:50.289Z,59.55
2022-12-03T21:04:39.775Z,60.72
2022-12-03T21:07:34.633Z,64.10
2022-12-03T21:10:45.799Z,64.57
2022-12-03T21:13:15.713Z,58.42
2022-12-03T21:15:46.879Z,66.70
2022-12-03T21:18:35.872Z,57.20
2022-12-03T21:21:30.348Z,60.53
2022-12-03T21:24:08.711Z,56.47
2022-12-03T21:27:00.467Z,63.47
2022-12-03T21:29:29.465Z,60.55
2022-12-03T21:31:59.640Z,56.80
2022-12-03T21:34:35.589Z,93.57
2022-12-03T21:37:05.936Z,71.25
2022-12-03T21:39:37.356Z,61.00
2022-12-03T21:42:34.275Z,63.60
2022-12-03T21:44:54.776Z,62.50
2022-12-03T21:47:25.399Z,60.97
2022-12-03T21:49:54.661Z,64.13
2022-12-03T21:52:23.572Z,96.88
2022-12-03T21:54:53.495Z,71.50
2022-12-03T21:57:22.458Z,59.60
2022-12-03T21:59:51.714Z,59.63
2022-12-03T22:02:20.614Z,65.97
2022-12-03T22:04:52.179Z,61.92
2022-12-03T22:07:22.452Z,56.72
2022-12-03T22:09:51.872Z,60.25
2022-12-03T22:12:22.821Z,61.67
2022-12-03T22:14:53.822Z,57.83
2022-12-03T22:17:24.725Z,63.90
2022-12-03T22:19:56.242Z,56.05
2022-12-03T22:22:25.278Z,57.70
2022-12-03T22:24:53.969Z,62.15
2022-12-03T22:27:22.898Z,60.45
2022-12-03T22:29:51.626Z,57.50
2022-12-03T22:32:20.943Z,58.33
2022-12-03T22:34:52.172Z,56.92
2022-12-03T22:37:24.893Z,63.97
2022-12-03T22:39:59.882Z,57.65
2022-12-03T22:42:31.190Z,60.67
2022-12-03T22:45:02.102Z,64.07
2022-12-03T22:47:30.789Z,62.10
2022-12-03T22:50:01.470Z,57.13
2022-12-03T22:52:31.870Z,62.30
2022-12-03T22:55:00.538Z,62.10
2022-12-03T22:57:32.376Z,58.63
2022-12-03T23:00:01.313Z,61.25
2022-12-03T23:02:30.518Z,61.90
2022-12-03T23:04:59.211Z,60.05
2022-12-03T23:07:27.930Z,64.18
2022-12-03T23:09:58.336Z,64.25
2022-12-03T23:12:27.100Z,56.05
2022-12-03T23:14:56.257Z,61.35
2022-12-03T23:17:24.974Z,58.85
2022-12-03T23:19:53.980Z,67.78
2022-12-03T23:22:23.124Z,54.78
2022-12-03T23:24:51.948Z,58.45
2022-12-03T23:27:24.334Z,61.42
2022-12-03T23:29:53.313Z,62.90
2022-12-03T23:32:23.716Z,60.85
2022-12-03T23:34:54.559Z,57.50
2022-12-03T23:37:23.716Z,57.92
2022-12-03T23:39:52.763Z,61.42
2022-12-03T23:42:25.632Z,58.00
2022-12-03T23:44:54.826Z,58.40
2022-12-03T23:47:30.367Z,61.60
2022-12-03T23:49:59.321Z,59.47
2022-12-03T23:52:28.485Z,56.45
2022-12-03T23:54:57.182Z,61.33
2022-12-03T23:57:27.812Z,62.90
2022-12-03T23:59:56.861Z,62.55
